Time;durP1;ratioP1;P1;durP2;ratioP2;P2;SDS_P1;SDS_P2;PMS_P1;PMS_P2;Temp;Humidity;BMP_temperature;BMP_pressure;BME280_temperature;BME280_humidity;BME280_pressure;Samples;Min_cycle;Max_cycle;Signal;HPM_P1;HPM_P2
2024/01/05 00:00:15;;;;;;;6.35;5.55;;;;;;;5.89;76.99;94588.22;5058334;28;20190;-72
2024/01/05 00:02:42;;;;;;;5.75;5.15;;;;;;;5.87;76.72;94585.00;5058077;28;20182;-72
2024/01/05 00:05:09;;;;;;;4.65;4.25;;;;;;;5.90;76.81;94589.03;5058035;28;20667;-72
2024/01/05 00:07:38;;;;;;;4.93;4.43;;;;;;;5.92;76.71;94592.22;5040868;28;20256;-72
2024/01/05 00:10:06;;;;;;;5.22;4.82;;;;;;;5.87;76.57;94597.91;5058420;28;20206;-72
2024/01/05 00:12:33;;;;;;;5.43;4.93;;;;;;;5.84;76.85;94595.81;5040575;28;20244;-72
2024/01/05 00:15:00;;;;;;;5.95;4.70;;;;;;;5.94;77.24;94598.19;5041175;28;20320;-72
2024/01/05 00:17:28;;;;;;;5.45;4.65;;;;;;;5.95;76.90;94608.00;5040287;28;20193;-72
2024/01/05 00:19:55;;;;;;;5.50;4.90;;;;;;;5.92;77.17;94605.91;5058091;28;20678;-72
2024/01/05 00:22:22;;;;;;;5.40;4.80;;;;;;;5.87;77.21;94606.91;5058257;28;20284;-72
2024/01/05 00:24:50;;;;;;;5.72;5.22;;;;;;;5.76;76.74;94606.50;5040347;28;20275;-72
2024/01/05 00:27:17;;;;;;;5.78;5.15;;;;;;;5.70;76.89;94607.88;5056419;28;20625;-72
2024/01/05 00:29:45;;;;;;;5.43;4.93;;;;;;;5.74;77.11;94617.00;5040479;28;20228;-72
2024/01/05 00:32:12;;;;;;;5.85;5.25;;;;;;;5.74;77.63;94603.31;5040332;28;20220;-72
2024/01/05 00:34:38;;;;;;;5.30;4.80;;;;;;;5.78;77.56;94601.53;5041077;28;20545;-72
2024/01/05 00:37:06;;;;;;;5.70;5.20;;;;;;;5.74;77.41;94611.53;5040161;28;20233;-72
2024/01/05 00:39:33;;;;;;;6.18;5.65;;;;;;;5.74;77.48;94610.72;5057672;28;20178;-72
2024/01/05 00:42:02;;;;;;;6.85;5.60;;;;;;;5.75;77.91;94615.88;5040349;28;20566;-72
2024/01/05 00:44:29;;;;;;;8.70;7.78;;;;;;;5.80;77.72;94609.38;5039927;28;20224;-72
2024/01/05 00:46:56;;;;;;;10.13;7.80;;;;;;;5.79;77.40;94610.53;5040216;28;20209;-72
2024/01/05 00:49:23;;;;;;;8.63;7.38;;;;;;;5.77;77.31;94612.78;5040528;28;20201;-72
2024/01/05 00:51:50;;;;;;;8.05;7.35;;;;;;;5.73;77.18;94612.66;5040889;28;20197;-72
2024/01/05 00:54:17;;;;;;;7.88;7.05;;;;;;;5.65;77.26;94605.31;5040045;28;20218;-72
2024/01/05 00:56:44;;;;;;;8.07;7.32;;;;;;;5.55;76.97;94619.38;5040183;28;20194;-72
2024/01/05 00:59:13;;;;;;;8.02;7.30;;;;;;;5.50;77.45;94609.44;5039536;28;20241;-71
2024/01/05 01:01:40;;;;;;;7.03;6.32;;;;;;;5.44;77.74;94618.94;5039588;28;20201;-71
2024/01/05 01:04:07;;;;;;;7.18;6.38;;;;;;;5.46;77.47;94610.44;5040031;28;20232;-71
2024/01/05 01:06:34;;;;;;;3.92;3.35;;;;;;;5.73;76.13;94609.09;5040534;28;20263;-71
2024/01/05 01:09:01;;;;;;;4.35;2.10;;;;;;;6.16;74.77;94606.06;5039640;28;20206;-71
2024/01/05 01:11:28;;;;;;;1.55;1.25;;;;;;;6.53;73.70;94606.19;5039906;28;20625;-71
2024/01/05 01:13:55;;;;;;;1.58;1.45;;;;;;;6.86;71.48;94613.56;5039783;28;20226;-71
2024/01/05 01:16:23;;;;;;;1.50;1.20;;;;;;;7.13;70.71;94606.63;5040045;28;20563;-71
2024/01/05 01:18:50;;;;;;;1.45;1.35;;;;;;;7.35;68.55;94611.66;5039222;28;20649;-71
2024/01/05 01:21:18;;;;;;;1.63;1.10;;;;;;;7.56;67.30;94613.50;5039018;28;20206;-71
2024/01/05 01:23:45;;;;;;;1.58;1.10;;;;;;;7.70;66.90;94620.22;5039630;28;20224;-71
2024/01/05 01:26:12;;;;;;;2.95;1.65;;;;;;;7.83;66.64;94620.97;5057041;28;20186;-72
2024/01/05 01:28:39;;;;;;;1.70;1.42;;;;;;;7.90;66.51;94618.44;5039624;28;20233;-72
2024/01/05 01:31:06;;;;;;;1.55;1.20;;;;;;;7.97;66.02;94617.88;5039997;28;20209;-71
2024/01/05 01:33:34;;;;;;;2.22;1.30;;;;;;;8.03;65.72;94615.69;5039610;28;20253;-71
2024/01/05 01:36:01;;;;;;;4.38;3.80;;;;;;;8.04;65.91;94618.06;5039276;28;20201;-71
2024/01/05 01:38:28;;;;;;;5.75;5.05;;;;;;;7.58;66.72;94628.44;5039064;28;20606;-71
2024/01/05 01:40:56;;;;;;;7.00;5.80;;;;;;;7.12;67.32;94625.03;5039466;28;20209;-71
2024/01/05 01:43:25;;;;;;;6.90;6.00;;;;;;;6.72;69.08;94630.34;5038963;28;20201;-71
2024/01/05 01:45:52;;;;;;;5.75;5.18;;;;;;;6.39;70.03;94633.06;5039466;28;20198;-72
2024/01/05 01:48:20;;;;;;;5.90;5.22;;;;;;;6.14;71.26;94632.19;5039432;28;20194;-72
2024/01/05 01:50:50;;;;;;;5.43;4.93;;;;;;;5.94;72.34;94628.31;5056594;28;20682;-71
2024/01/05 01:53:20;;;;;;;5.30;4.78;;;;;;;5.80;73.05;94634.81;5038451;28;20204;-71
2024/01/05 01:55:48;;;;;;;5.60;5.10;;;;;;;5.74;73.74;94643.56;5037529;28;20706;-71
2024/01/05 01:58:17;;;;;;;5.03;4.63;;;;;;;5.72;74.48;94652.09;5038293;28;20284;-71
2024/01/05 02:00:44;;;;;;;4.85;4.40;;;;;;;5.66;74.80;94658.88;5038756;28;20205;-72
2024/01/05 02:03:11;;;;;;;5.60;5.18;;;;;;;5.57;74.61;94673.78;5038570;28;20216;-72
2024/01/05 02:05:38;;;;;;;5.68;5.18;;;;;;;5.51;74.52;94659.47;5055801;28;20568;-72
2024/01/05 02:08:07;;;;;;;5.20;4.70;;;;;;;5.46;75.15;94670.59;5038674;28;20271;-72
2024/01/05 02:10:34;;;;;;;4.95;4.55;;;;;;;5.47;75.88;94664.00;5038705;28;20237;-72
2024/01/05 02:13:01;;;;;;;5.57;4.32;;;;;;;5.44;75.64;94665.44;5038887;28;20213;-72
2024/01/05 02:15:28;;;;;;;5.28;4.68;;;;;;;5.41;75.88;94670.78;5038385;28;20264;-72
2024/01/05 02:17:55;;;;;;;5.00;4.50;;;;;;;5.40;76.20;94664.50;5038372;28;20240;-71
2024/01/05 02:20:22;;;;;;;4.90;4.50;;;;;;;5.40;76.13;94656.31;5038457;28;20206;-71
2024/01/05 02:22:55;;;;;;;6.28;5.65;;;;;;;5.32;76.45;94660.69;5038027;28;20579;-71
2024/01/05 02:25:23;;;;;;;6.60;6.00;;;;;;;5.27;76.19;94660.09;5037900;28;20286;-71
2024/01/05 02:27:50;;;;;;;7.50;6.70;;;;;;;5.24;76.68;94656.06;5047106;28;20293;-71
2024/01/05 02:30:19;;;;;;;6.18;5.57;;;;;;;5.24;76.79;94660.75;5112495;28;20200;-71
2024/01/05 02:32:46;;;;;;;6.60;6.00;;;;;;;5.16;76.63;94656.13;5077837;28;20615;-70
2024/01/05 02:35:13;;;;;;;6.70;5.68;;;;;;;5.12;77.08;94663.34;5095477;28;20192;-70
2024/01/05 02:37:43;;;;;;;6.82;6.22;;;;;;;5.13;77.16;94670.44;5095536;28;20245;-70
2024/01/05 02:40:12;;;;;;;5.03;4.63;;;;;;;5.24;77.02;94664.28;5095730;28;20184;-70
2024/01/05 02:42:41;;;;;;;3.13;2.40;;;;;;;5.48;77.21;94668.31;5095030;28;20210;-70
2024/01/05 02:45:08;;;;;;;4.55;4.15;;;;;;;5.72;76.07;94659.50;5095716;28;20189;-70
2024/01/05 02:47:35;;;;;;;2.50;1.75;;;;;;;6.03;75.38;94653.69;5078138;28;20192;-70
2024/01/05 02:50:04;;;;;;;4.65;4.25;;;;;;;6.39;73.78;94660.47;5078162;28;20332;-70
2024/01/05 02:52:31;;;;;;;3.30;3.00;;;;;;;6.28;72.05;94662.81;5111375;28;20696;-70
2024/01/05 02:54:58;;;;;;;5.57;5.07;;;;;;;6.07;71.67;94675.72;5078105;28;20216;-70
2024/01/05 02:57:26;;;;;;;5.30;4.90;;;;;;;5.80;72.41;94675.06;5111187;28;20699;-70
2024/01/05 02:59:55;;;;;;;5.32;4.82;;;;;;;5.53;73.25;94670.88;5077974;28;20258;-71
2024/01/05 03:02:22;;;;;;;7.65;6.95;;;;;;;5.40;73.98;94680.91;5077390;28;20634;-71
2024/01/05 03:04:51;;;;;;;7.15;6.40;;;;;;;5.29;74.72;94685.16;5078084;28;20196;-71
2024/01/05 03:07:18;;;;;;;7.97;7.18;;;;;;;5.14;75.08;94683.78;5077463;28;20204;-71
2024/01/05 03:09:45;;;;;;;7.28;6.57;;;;;;;5.10;76.08;94692.97;5111965;28;20257;-71
2024/01/05 03:12:13;;;;;;;8.32;7.35;;;;;;;5.14;76.19;94688.44;5077578;28;20208;-71
2024/01/05 03:14:40;;;;;;;9.13;8.25;;;;;;;5.12;76.54;94697.00;5077911;28;20208;-71
2024/01/05 03:17:08;;;;;;;9.85;8.60;;;;;;;5.09;76.32;94691.38;5095123;28;20245;-71
2024/01/05 03:19:35;;;;;;;9.32;8.38;;;;;;;5.05;76.53;94689.28;5111873;28;20200;-71
2024/01/05 03:22:02;;;;;;;8.98;7.63;;;;;;;4.99;76.39;94700.72;5111584;28;20211;-71
2024/01/05 03:24:29;;;;;;;8.73;7.90;;;;;;;4.91;76.71;94709.75;5078021;28;20184;-71
2024/01/05 03:26:56;;;;;;;9.10;8.30;;;;;;;4.84;77.16;94707.50;5111641;28;20253;-71
2024/01/05 03:29:23;;;;;;;10.07;8.43;;;;;;;4.81;77.31;94721.81;5073856;28;20232;-71
2024/01/05 03:31:50;;;;;;;8.13;7.32;;;;;;;4.82;77.88;94729.69;5074330;28;20197;-71
2024/01/05 03:34:19;;;;;;;7.93;7.22;;;;;;;4.81;77.78;94722.63;5091571;28;20337;-72
2024/01/05 03:36:46;;;;;;;7.95;7.15;;;;;;;4.84;77.92;94729.38;5073979;28;20201;-71
2024/01/05 03:39:12;;;;;;;7.50;6.80;;;;;;;4.84;78.13;94734.84;5074221;28;20201;-71
2024/01/05 03:41:40;;;;;;;7.55;6.53;;;;;;;4.86;78.06;94734.50;5074493;28;20552;-71
2024/01/05 03:44:06;;;;;;;7.90;7.20;;;;;;;4.88;78.15;94751.38;5073666;28;20228;-71
2024/01/05 03:46:33;;;;;;;7.65;6.95;;;;;;;4.87;78.20;94745.13;5073516;28;20193;-71
2024/01/05 03:49:00;;;;;;;7.13;6.43;;;;;;;4.87;78.67;94745.13;5091209;28;20201;-71
2024/01/05 03:51:29;;;;;;;7.10;6.40;;;;;;;4.88;78.59;94748.66;5073724;28;20215;-71
2024/01/05 03:53:56;;;;;;;6.95;6.35;;;;;;;4.86;78.54;94737.22;5074689;28;20247;-71
2024/01/05 03:56:23;;;;;;;6.63;6.03;;;;;;;4.87;78.18;94750.59;5074669;28;20246;-71
2024/01/05 03:58:50;;;;;;;7.50;6.80;;;;;;;4.84;78.49;94751.22;5074661;28;20177;-71
2024/01/05 04:01:17;;;;;;;7.20;6.68;;;;;;;4.81;78.46;94744.47;5090825;28;20212;-71
2024/01/05 04:03:45;;;;;;;7.88;7.07;;;;;;;4.81;78.71;94747.22;5073418;28;20193;-71
2024/01/05 04:06:19;;;;;;;7.80;7.10;;;;;;;4.76;78.20;94749.31;5074554;28;20217;-71
2024/01/05 04:08:48;;;;;;;6.75;6.15;;;;;;;4.76;78.72;94752.06;5074363;28;20184;-71
2024/01/05 04:11:20;;;;;;;7.38;6.78;;;;;;;4.72;78.80;94754.63;5073676;28;20296;-72
2024/01/05 04:13:47;;;;;;;7.20;6.50;;;;;;;4.72;78.74;94767.47;5074379;28;20528;-72
2024/01/05 04:16:14;;;;;;;7.68;6.97;;;;;;;4.74;78.79;94759.75;5074418;28;20202;-72
2024/01/05 04:18:41;;;;;;;8.05;7.32;;;;;;;4.70;78.66;94756.06;5076480;28;20635;-71
2024/01/05 04:21:09;;;;;;;7.50;6.80;;;;;;;4.65;78.40;94751.59;5077363;28;20205;-71
2024/01/05 04:23:36;;;;;;;7.82;7.13;;;;;;;4.64;78.70;94757.34;5077713;28;20509;-71
2024/01/05 04:26:05;;;;;;;7.32;6.72;;;;;;;4.67;79.05;94762.19;5078143;28;20208;-71
2024/01/05 04:28:32;;;;;;;8.20;7.40;;;;;;;4.62;79.12;94759.63;5086901;28;20247;-71
2024/01/05 04:30:59;;;;;;;9.27;8.48;;;;;;;4.61;78.92;94766.19;5114617;28;20208;-71
2024/01/05 04:33:26;;;;;;;10.70;9.65;;;;;;;4.58;78.60;94773.91;5080597;28;20660;-71
2024/01/05 04:35:53;;;;;;;9.88;8.98;;;;;;;4.50;78.36;94772.00;5080649;28;20281;-70
2024/01/05 04:38:20;;;;;;;11.95;10.73;;;;;;;4.42;78.23;94775.50;5098618;28;20245;-71
2024/01/05 04:40:47;;;;;;;11.88;10.88;;;;;;;4.35;78.92;94792.38;5080467;28;20200;-72
2024/01/05 04:43:16;;;;;;;11.30;10.30;;;;;;;4.37;78.92;94783.06;5081014;28;20200;-70
2024/01/05 04:45:43;;;;;;;10.85;9.75;;;;;;;4.33;78.83;94782.91;5097574;28;20232;-70
2024/01/05 04:48:10;;;;;;;11.35;10.15;;;;;;;4.31;78.77;94790.59;5097601;28;20199;-70
2024/01/05 04:50:37;;;;;;;10.73;9.73;;;;;;;4.27;78.83;94793.16;5080674;28;20200;-70
2024/01/05 04:53:04;;;;;;;9.20;8.30;;;;;;;4.25;78.64;94795.44;5097782;28;20250;-70
2024/01/05 04:55:31;;;;;;;9.98;8.50;;;;;;;4.25;78.80;94806.34;5097670;28;20204;-70
2024/01/05 04:57:58;;;;;;;8.48;7.68;;;;;;;4.25;78.87;94806.34;5097634;28;20239;-70
2024/01/05 05:00:26;;;;;;;9.48;7.97;;;;;;;4.23;78.53;94808.59;5079835;28;20704;-70
2024/01/05 05:02:53;;;;;;;8.40;7.55;;;;;;;4.23;78.90;94810.53;5079911;28;20189;-70
2024/01/05 05:05:22;;;;;;;9.57;8.27;;;;;;;4.21;78.68;94808.13;5114060;28;20253;-70
2024/01/05 05:07:49;;;;;;;9.43;7.88;;;;;;;4.22;78.95;94825.28;5113547;28;20197;-70
2024/01/05 05:10:16;;;;;;;8.40;7.60;;;;;;;4.26;78.86;94812.63;5097006;28;20626;-70
2024/01/05 05:12:44;;;;;;;8.82;7.95;;;;;;;4.30;78.90;94821.78;5079859;28;20232;-70
2024/01/05 05:15:14;;;;;;;8.98;7.60;;;;;;;4.27;78.94;94825.13;5097214;28;20349;-68
2024/01/05 05:17:42;;;;;;;8.27;6.75;;;;;;;4.33;79.04;94827.41;5079276;28;20245;-67
2024/01/05 05:20:10;;;;;;;7.57;6.93;;;;;;;4.33;78.69;94826.59;5096897;28;20242;-68
2024/01/05 05:22:37;;;;;;;9.85;7.80;;;;;;;4.28;78.42;94838.44;5096859;28;20215;-68
2024/01/05 05:25:05;;;;;;;9.65;7.78;;;;;;;4.28;78.77;94846.66;5097318;28;20204;-67
2024/01/05 05:27:32;;;;;;;11.23;10.02;;;;;;;4.21;78.49;94837.31;5078762;28;22248;-67
2024/01/05 05:29:59;;;;;;;10.82;9.77;;;;;;;4.06;77.71;94852.22;5079537;28;20193;-67
2024/01/05 05:32:26;;;;;;;11.10;10.10;;;;;;;4.00;78.35;94853.50;5079666;28;20208;-67
2024/01/05 05:34:55;;;;;;;11.15;10.05;;;;;;;3.91;78.45;94850.72;5079450;28;20208;-67
2024/01/05 05:37:22;;;;;;;11.73;10.52;;;;;;;3.95;78.85;94848.16;5079368;28;20210;-68
2024/01/05 05:39:49;;;;;;;11.57;10.25;;;;;;;3.95;79.19;94848.16;5079666;28;20224;-68
2024/01/05 05:42:16;;;;;;;10.40;9.45;;;;;;;3.93;79.02;94847.69;5078710;28;20200;-69
2024/01/05 05:44:43;;;;;;;10.98;9.88;;;;;;;3.92;79.45;94840.63;5096624;28;20218;-69
2024/01/05 05:47:10;;;;;;;10.77;9.77;;;;;;;3.88;79.07;94847.81;5096926;28;20231;-69
2024/01/05 05:49:37;;;;;;;12.40;11.10;;;;;;;3.82;79.20;94850.72;5078852;28;20603;-68
2024/01/05 05:52:07;;;;;;;12.80;11.20;;;;;;;3.78;79.17;94852.47;5096330;28;20620;-67
2024/01/05 05:54:34;;;;;;;11.93;10.82;;;;;;;3.80;79.31;94865.78;5097113;28;20196;-68
2024/01/05 05:57:01;;;;;;;11.73;10.63;;;;;;;3.87;79.20;94857.94;5096271;28;20652;-68
2024/01/05 05:59:29;;;;;;;11.50;10.43;;;;;;;3.88;79.69;94877.84;5078561;28;20284;-68
2024/01/05 06:01:56;;;;;;;12.40;11.30;;;;;;;3.90;79.95;94868.22;5096726;28;20208;-67
2024/01/05 06:04:23;;;;;;;12.45;11.15;;;;;;;3.87;79.59;94868.84;5078621;28;20192;-67
2024/01/05 06:06:50;;;;;;;11.18;10.07;;;;;;;3.90;79.60;94872.88;5078404;28;20553;-66
2024/01/05 06:09:18;;;;;;;12.80;11.35;;;;;;;3.87;79.77;94879.75;5096170;28;20212;-69
2024/01/05 06:11:45;;;;;;;12.68;11.57;;;;;;;3.83;79.28;94876.88;5078747;28;20672;-68
2024/01/05 06:14:12;;;;;;;11.77;10.77;;;;;;;3.79;79.60;94877.81;5078215;28;20688;-68
2024/01/05 06:16:40;;;;;;;13.25;12.05;;;;;;;3.77;79.36;94875.38;5078972;28;20201;-67
2024/01/05 06:19:09;;;;;;;12.82;11.63;;;;;;;3.75;79.76;94874.91;5078896;28;20228;-67
2024/01/05 06:21:36;;;;;;;13.02;11.93;;;;;;;3.73;79.83;94870.88;5078779;28;20226;-67
2024/01/05 06:24:03;;;;;;;13.40;12.20;;;;;;;3.71;80.25;94871.22;5096480;28;20214;-70
2024/01/05 06:26:32;;;;;;;12.35;11.18;;;;;;;3.72;80.39;94875.53;5078327;28;20204;-67
2024/01/05 06:28:59;;;;;;;9.57;8.65;;;;;;;3.90;81.11;94873.69;5093866;28;20232;-68
2024/01/05 06:31:26;;;;;;;12.82;11.63;;;;;;;3.99;80.74;94884.63;5096021;28;20180;-69
2024/01/05 06:33:53;;;;;;;14.93;13.45;;;;;;;3.95;80.45;94879.00;5095599;28;20189;-68
2024/01/05 06:36:20;;;;;;;14.40;13.20;;;;;;;3.88;79.94;94888.75;5077999;28;20216;-69
2024/01/05 06:38:47;;;;;;;15.77;14.27;;;;;;;3.86;80.39;94889.09;5078042;28;20200;-69
2024/01/05 06:41:14;;;;;;;14.73;13.43;;;;;;;3.84;80.30;94896.75;5077587;28;20200;-69
2024/01/05 06:43:42;;;;;;;15.52;14.02;;;;;;;3.80;80.44;94893.84;5095464;28;20192;-70
2024/01/05 06:46:10;;;;;;;17.63;16.02;;;;;;;3.77;80.21;94899.13;5078783;28;20188;-70
2024/01/05 06:48:36;;;;;;;17.67;16.10;;;;;;;3.79;80.76;94900.44;5078495;28;20232;-69
2024/01/05 06:51:04;;;;;;;15.73;14.23;;;;;;;3.81;80.54;94902.84;5077963;28;20204;-69
2024/01/05 06:53:31;;;;;;;17.50;15.90;;;;;;;3.82;80.42;94891.63;5095349;28;20196;-67
2024/01/05 06:55:58;;;;;;;16.88;15.27;;;;;;;3.93;81.05;94894.09;5078642;28;20208;-68
2024/01/05 06:58:27;;;;;;;12.93;11.82;;;;;;;4.01;81.19;94890.56;5095829;28;20189;-67
2024/01/05 07:00:56;;;;;;;13.20;12.02;;;;;;;4.15;81.19;94893.19;5077786;28;20200;-67
2024/01/05 07:03:23;;;;;;;13.15;12.05;;;;;;;4.24;81.17;94886.63;5078040;28;20227;-65
2024/01/05 07:05:50;;;;;;;13.18;11.88;;;;;;;4.32;81.18;94893.22;5095220;28;20275;-69
2024/01/05 07:08:17;;;;;;;12.68;11.50;;;;;;;4.39;80.95;94879.13;5095476;28;20551;-68
2024/01/05 07:10:44;;;;;;;11.95;10.95;;;;;;;4.43;80.94;94878.19;5095464;28;20237;-66
2024/01/05 07:13:12;;;;;;;9.35;8.55;;;;;;;4.56;81.22;94884.63;5095352;28;20181;-66
2024/01/05 07:15:39;;;;;;;11.77;10.68;;;;;;;4.70;81.25;94882.53;5077237;28;20204;-65
2024/01/05 07:18:08;;;;;;;11.60;10.50;;;;;;;4.80;80.79;94890.44;5077593;28;20192;-71
2024/01/05 07:20:35;;;;;;;11.68;10.48;;;;;;;4.88;81.16;94877.91;5060780;28;20208;-72
2024/01/05 07:23:02;;;;;;;10.63;9.52;;;;;;;4.97;80.92;94883.34;5077861;28;20505;-69
2024/01/05 07:25:29;;;;;;;10.65;9.70;;;;;;;5.07;80.36;94881.09;5077797;28;20188;-69
2024/01/05 07:27:56;;;;;;;10.60;9.60;;;;;;;5.22;80.24;94881.72;5110729;28;20236;-69
2024/01/05 07:30:24;;;;;;;11.10;8.45;;;;;;;5.32;79.90;94881.41;5111359;28;20204;-69
2024/01/05 07:32:51;;;;;;;8.77;7.90;;;;;;;5.39;79.33;94883.66;5111465;28;20197;-70
2024/01/05 07:35:20;;;;;;;9.55;8.63;;;;;;;5.46;78.98;94884.75;5077344;28;20217;-70
2024/01/05 07:37:47;;;;;;;8.43;7.50;;;;;;;5.54;78.60;94886.66;5095085;28;20224;-70
2024/01/05 07:40:14;;;;;;;7.05;6.00;;;;;;;5.68;78.54;94883.75;5095141;28;20207;-70
2024/01/05 07:42:41;;;;;;;5.15;4.63;;;;;;;5.86;78.39;94889.16;5095299;28;20564;-71
2024/01/05 07:45:09;;;;;;;5.88;4.45;;;;;;;6.02;77.93;94891.06;5095118;28;20268;-70
2024/01/05 07:47:36;;;;;;;4.60;4.20;;;;;;;6.20;77.51;94891.00;5077725;28;20200;-72
2024/01/05 07:50:03;;;;;;;5.85;4.57;;;;;;;6.31;76.46;94894.97;5077051;28;20619;-71
2024/01/05 07:52:32;;;;;;;5.85;4.80;;;;;;;6.36;75.31;94889.31;5077436;28;20603;-72
2024/01/05 07:54:59;;;;;;;6.40;4.97;;;;;;;6.45;75.23;94889.25;5081660;28;20254;-67
2024/01/05 07:57:26;;;;;;;6.45;4.95;;;;;;;6.56;74.69;94886.94;5098802;28;20213;-65
2024/01/05 07:59:53;;;;;;;5.75;5.22;;;;;;;6.68;74.28;94884.28;5098583;28;20188;-66
2024/01/05 08:02:20;;;;;;;6.80;4.95;;;;;;;6.79;74.31;94888.25;5080828;28;20204;-66
2024/01/05 08:04:47;;;;;;;6.00;5.07;;;;;;;6.87;73.87;94890.13;5081325;28;20192;-66
2024/01/05 08:07:13;;;;;;;6.18;4.63;;;;;;;6.94;73.25;94892.34;5081159;28;20201;-66
2024/01/05 08:09:44;;;;;;;4.75;4.35;;;;;;;7.03;73.39;94895.00;5080690;28;20269;-66
2024/01/05 08:12:11;;;;;;;5.55;4.93;;;;;;;7.10;73.03;94892.53;5114990;28;20204;-65
2024/01/05 08:14:39;;;;;;;5.10;4.25;;;;;;;7.26;72.95;94900.94;5098608;28;20184;-65
2024/01/05 08:17:06;;;;;;;5.70;4.43;;;;;;;7.38;72.55;94904.56;5098468;28;20219;-65
2024/01/05 08:19:33;;;;;;;6.93;5.07;;;;;;;7.47;71.94;94897.03;5098222;28;20213;-66
2024/01/05 08:22:00;;;;;;;5.03;4.47;;;;;;;7.56;71.56;94898.91;5115291;28;20242;-69
2024/01/05 08:24:27;;;;;;;6.40;5.30;;;;;;;7.66;71.31;94898.47;5098474;28;20257;-67
2024/01/05 08:26:56;;;;;;;7.18;5.53;;;;;;;7.77;71.36;94901.59;5098434;28;20211;-69
2024/01/05 08:29:23;;;;;;;7.38;6.28;;;;;;;7.85;70.58;94903.47;5075288;28;20318;-69
2024/01/05 08:31:51;;;;;;;7.35;6.65;;;;;;;7.92;70.59;94904.50;5078217;28;20186;-67
2024/01/05 08:34:18;;;;;;;8.07;6.75;;;;;;;7.97;69.66;94908.97;5094544;28;20322;-69
2024/01/05 08:36:45;;;;;;;8.60;7.18;;;;;;;8.10;70.25;94909.81;5078107;28;20251;-70
2024/01/05 08:39:12;;;;;;;10.10;8.65;;;;;;;8.23;69.40;94911.41;5076986;28;20193;-66
2024/01/05 08:41:40;;;;;;;11.00;9.88;;;;;;;8.32;69.01;94909.38;5078109;28;20213;-66
2024/01/05 08:44:09;;;;;;;10.63;9.38;;;;;;;8.49;69.61;94916.63;5076368;28;20265;-66
2024/01/05 08:46:35;;;;;;;11.65;9.35;;;;;;;8.59;68.93;94909.88;5077769;28;20181;-66
2024/01/05 08:49:04;;;;;;;11.18;8.93;;;;;;;8.64;68.14;94913.19;5076385;28;20211;-66
2024/01/05 08:51:31;;;;;;;10.18;9.13;;;;;;;8.73;68.04;94904.03;5077878;28;20190;-66
2024/01/05 08:54:01;;;;;;;11.50;10.15;;;;;;;8.76;67.38;94908.84;5077181;28;20201;-66
2024/01/05 08:56:28;;;;;;;11.82;10.63;;;;;;;8.88;67.71;94897.81;5077162;28;20225;-67
2024/01/05 08:58:55;;;;;;;11.75;10.50;;;;;;;9.07;67.47;94898.00;5077184;28;20209;-67
2024/01/05 09:01:24;;;;;;;12.70;10.43;;;;;;;9.27;67.74;94893.50;5077109;28;20220;-67
2024/01/05 09:03:51;;;;;;;10.43;8.70;;;;;;;9.41;66.20;94893.09;5076685;28;20216;-67
2024/01/05 09:06:18;;;;;;;10.13;8.40;;;;;;;9.56;66.28;94883.28;5077326;28;20209;-67
2024/01/05 09:08:45;;;;;;;10.52;7.65;;;;;;;9.74;65.97;94884.59;5093273;28;20207;-67
2024/01/05 09:11:13;;;;;;;8.30;7.25;;;;;;;9.92;65.47;94889.78;5077167;28;20208;-67
2024/01/05 09:13:41;;;;;;;8.77;7.13;;;;;;;9.99;64.49;94889.97;5076693;28;20203;-67
2024/01/05 09:16:08;;;;;;;9.45;6.63;;;;;;;10.03;63.57;94894.41;5076858;28;20659;-66
2024/01/05 09:18:38;;;;;;;7.20;6.30;;;;;;;10.21;63.45;94886.59;5093541;28;20197;-67
2024/01/05 09:21:07;;;;;;;8.05;7.20;;;;;;;10.41;63.77;94889.47;5076141;28;20189;-67
2024/01/05 09:23:34;;;;;;;7.65;6.07;;;;;;;10.57;63.57;94890.28;5076919;28;20247;-67
2024/01/05 09:26:01;;;;;;;7.40;6.47;;;;;;;10.79;62.71;94886.88;5092909;28;20242;-67
2024/01/05 09:28:28;;;;;;;7.40;6.63;;;;;;;10.93;61.95;94885.56;5075581;28;20275;-67
2024/01/05 09:30:55;;;;;;;10.35;8.88;;;;;;;11.03;60.84;94885.81;5093038;28;20201;-67
2024/01/05 09:33:22;;;;;;;11.02;9.02;;;;;;;11.13;60.43;94881.72;5076818;28;20238;-66
2024/01/05 09:35:50;;;;;;;10.55;8.02;;;;;;;11.23;59.94;94888.63;5076984;28;20203;-67
2024/01/05 09:38:17;;;;;;;10.20;7.65;;;;;;;11.38;60.35;94889.72;5076432;28;20185;-66
2024/01/05 09:40:45;;;;;;;7.45;6.10;;;;;;;11.54;58.61;94887.69;5075764;28;20198;-66
2024/01/05 09:43:13;;;;;;;10.05;5.93;;;;;;;11.63;58.11;94891.03;5076929;28;20200;-66
2024/01/05 09:45:40;;;;;;;8.23;6.35;;;;;;;11.75;56.31;94895.63;5076584;28;20177;-67
2024/01/05 09:48:09;;;;;;;8.57;7.15;;;;;;;11.83;57.30;94880.75;5076515;28;20204;-66
2024/01/05 09:50:37;;;;;;;8.02;6.45;;;;;;;11.95;56.81;94891.72;5075516;28;20201;-67
2024/01/05 09:53:09;;;;;;;8.68;7.20;;;;;;;11.98;54.70;94904.81;5076102;28;20185;-66
2024/01/05 09:55:36;;;;;;;9.43;8.43;;;;;;;12.14;55.50;94896.41;5075942;28;20211;-67
2024/01/05 09:58:05;;;;;;;8.25;7.07;;;;;;;12.21;54.19;94884.69;5092794;28;20241;-67
2024/01/05 10:00:32;;;;;;;9.75;8.50;;;;;;;12.31;53.58;94881.31;5076247;28;20193;-66
2024/01/05 10:03:04;;;;;;;11.95;8.30;;;;;;;12.44;54.36;94876.38;5075581;28;20240;-66
2024/01/05 10:05:31;;;;;;;9.65;8.48;;;;;;;12.62;53.84;94873.91;5076775;28;20200;-66
2024/01/05 10:07:59;;;;;;;8.48;7.63;;;;;;;12.72;53.61;94874.06;5076304;28;20579;-65
2024/01/05 10:10:48;;;;;;;9.75;8.00;;;;;;;12.87;53.46;94868.75;5074906;28;20215;-67
2024/01/05 10:13:16;;;;;;;7.00;6.30;;;;;;;13.04;52.65;94870.22;5076168;28;20232;-66
2024/01/05 10:15:54;;;;;;;7.20;5.22;;;;;;;13.37;53.22;94859.22;5075075;28;20196;-67
2024/01/05 10:18:21;;;;;;;6.88;6.18;;;;;;;13.45;53.36;94857.34;5091983;28;20204;-67
2024/01/05 10:20:48;;;;;;;8.02;7.22;;;;;;;13.41;54.58;94854.53;5076382;28;20256;-67
2024/01/05 10:23:16;;;;;;;8.52;7.60;;;;;;;13.36;53.86;94846.56;5074710;28;20517;-66
2024/01/05 10:25:43;;;;;;;7.65;6.75;;;;;;;13.02;53.44;94842.88;5075865;28;20217;-68
2024/01/05 10:28:24;;;;;;;11.63;8.10;;;;;;;12.73;53.68;94841.66;5097639;28;20315;-69
2024/01/05 10:30:52;;;;;;;6.63;5.78;;;;;;;12.51;53.27;94840.53;5078652;28;20241;-69
2024/01/05 10:33:19;;;;;;;9.38;6.57;;;;;;;12.28;53.32;94835.81;5095695;28;20203;-69
2024/01/05 10:35:47;;;;;;;8.13;5.47;;;;;;;12.05;54.53;94832.25;5077802;28;20224;-69
2024/01/05 10:38:14;;;;;;;8.93;5.93;;;;;;;11.84;55.33;94832.69;5095881;28;20200;-70
2024/01/05 10:40:42;;;;;;;6.57;5.90;;;;;;;11.54;55.42;94836.00;5096161;28;20191;-69
2024/01/05 10:43:09;;;;;;;10.55;7.72;;;;;;;11.35;56.80;94840.75;5096396;28;20188;-69
2024/01/05 10:45:38;;;;;;;10.52;6.90;;;;;;;11.18;57.34;94834.47;5077209;28;20232;-70
2024/01/05 10:48:07;;;;;;;10.05;7.25;;;;;;;11.05;57.93;94827.53;5095374;28;20181;-70
2024/01/05 10:50:36;;;;;;;8.98;7.50;;;;;;;10.77;58.11;94828.47;5077651;28;20254;-70
2024/01/05 10:53:04;;;;;;;8.73;7.57;;;;;;;10.69;58.36;94818.47;5095619;28;20189;-70
2024/01/05 10:55:33;;;;;;;12.55;9.18;;;;;;;10.70;59.27;94819.25;5095580;28;20185;-70
2024/01/05 10:58:01;;;;;;;10.82;9.20;;;;;;;10.66;58.99;94812.84;5078617;28;20231;-70
2024/01/05 11:00:30;;;;;;;12.00;9.95;;;;;;;10.66;59.96;94816.41;5078307;28;20200;-71
2024/01/05 11:03:07;;;;;;;13.55;10.93;;;;;;;10.73;60.23;94810.25;5078573;28;20197;-71
2024/01/05 11:05:35;;;;;;;16.20;12.20;;;;;;;10.79;59.57;94809.63;5078383;28;20219;-71
2024/01/05 11:08:03;;;;;;;16.80;12.98;;;;;;;10.85;60.40;94807.38;5077808;28;20196;-71
2024/01/05 11:10:36;;;;;;;16.33;14.27;;;;;;;10.91;60.10;94803.16;5078462;28;20207;-71
2024/01/05 11:13:17;;;;;;;18.83;15.63;;;;;;;10.91;60.55;94799.63;5077879;28;20204;-70
2024/01/05 11:16:02;;;;;;;15.68;14.15;;;;;;;10.94;59.89;94796.13;5077639;28;20227;-70
2024/01/05 11:18:50;;;;;;;17.80;14.88;;;;;;;11.19;58.84;94802.19;5095472;28;20261;-69
2024/01/05 11:21:19;;;;;;;16.20;14.55;;;;;;;11.46;58.39;94794.81;5078218;28;20197;-71
2024/01/05 11:23:47;;;;;;;18.88;14.95;;;;;;;11.90;60.50;94791.72;5095010;28;20185;-71
2024/01/05 11:26:42;;;;;;;16.42;14.52;;;;;;;12.59;60.46;94781.38;5078212;28;20192;-71
2024/01/05 11:29:12;;;;;;;16.73;14.60;;;;;;;12.96;57.82;94783.47;5063851;28;20242;-71
2024/01/05 11:31:53;;;;;;;15.07;12.88;;;;;;;13.47;55.84;94777.41;5099837;28;20192;-71
2024/01/05 11:34:35;;;;;;;14.50;13.00;;;;;;;14.00;55.55;94777.16;5082440;28;20277;-70
2024/01/05 11:37:03;;;;;;;14.43;12.85;;;;;;;14.29;53.50;94774.66;5082027;28;20303;-70